AFR579 GUCY-LFPG
Flight info
| Callsign | AFR579 |
|---|---|
| Flight time | N/A |
| Altitude | 37000 |
| Route | DIRNO1C DIRNO UR72 BUMBI UM372 BULIS DCT MABAP UR722 SAK UG5 KORIS DCT SVL DCT HIJ DCT RUSEM DCT SOTUK DCT USOKO DCT TLD DCT SIE DCT EDIGO DCT DGO DCT ABRIX DCT CNA DCT POI DCT PEPAX UT182 KEPER |
| Aircraft | B772/H-SDE2E3FGHIJ5LORVWXY/LB1D1 |
Departure
| Time | N/A |
|---|---|
| Airport | Ahmed Sékou Touré International Airport (GUCY) |
Arrival
| Time | 2026-05-03 20:17 |
|---|---|
| Airport | Charles de Gaulle International Airport (LFPG) |
| Time | Latitude | Longitude | Altitude | Speed | Heading |
|---|---|---|---|---|---|
| 2026-05-03 20:15 | 49.00027 | 2.70379 | 1664 ft | 132 kts | 262° |
| 2026-05-03 20:15 | 48.99954 | 2.69007 | 1494 ft | 130 kts | 263° |
| 2026-05-03 20:15 | 48.99879 | 2.67623 | 1318 ft | 131 kts | 263° |
| 2026-05-03 20:15 | 48.99805 | 2.66252 | 1150 ft | 132 kts | 263° |
| 2026-05-03 20:16 | 48.99726 | 2.64836 | 959 ft | 135 kts | 263° |
| 2026-05-03 20:16 | 48.99653 | 2.63390 | 779 ft | 137 kts | 263° |
| 2026-05-03 20:16 | 48.99579 | 2.61937 | 576 ft | 138 kts | 263° |
| 2026-05-03 20:16 | 48.99500 | 2.60500 | 414 ft | 137 kts | 263° |
| 2026-05-03 20:17 | 48.99426 | 2.59094 | 363 ft | 123 kts | 265° |
| 2026-05-03 20:17 | 48.99369 | 2.58017 | 363 ft | 82 kts | 265° |
| 2026-05-03 20:17 | 48.99334 | 2.57355 | 361 ft | 53 kts | 265° |
| 2026-05-03 20:17 | 48.99314 | 2.56985 | 356 ft | 17 kts | 265° |
| 2026-05-03 20:18 | 48.99324 | 2.56812 | 360 ft | 17 kts | 287° |
| 2026-05-03 20:18 | 48.99382 | 2.56684 | 362 ft | 10 kts | 322° |
| 2026-05-03 20:18 | 48.99444 | 2.56648 | 362 ft | 10 kts | 351° |
| 2026-05-03 20:18 | 48.99512 | 2.56638 | 360 ft | 10 kts | 356° |
| 2026-05-03 20:19 | 48.99579 | 2.56631 | 359 ft | 10 kts | 355° |
| 2026-05-03 20:19 | 48.99647 | 2.56622 | 367 ft | 10 kts | 355° |
| 2026-05-03 20:19 | 48.99714 | 2.56613 | 363 ft | 10 kts | 355° |
| 2026-05-03 20:19 | 48.99783 | 2.56604 | 364 ft | 10 kts | 355° |
| 2026-05-03 20:20 | 48.99851 | 2.56595 | 362 ft | 10 kts | 355° |
| 2026-05-03 20:20 | 48.99911 | 2.56631 | 365 ft | 10 kts | 52° |
| 2026-05-03 20:20 | 48.99927 | 2.56734 | 364 ft | 10 kts | 84° |
| 2026-05-03 20:20 | 48.99934 | 2.56840 | 359 ft | 10 kts | 85° |
| 2026-05-03 20:21 | 48.99940 | 2.56946 | 359 ft | 10 kts | 85° |
| 2026-05-03 20:21 | 48.99945 | 2.57052 | 366 ft | 10 kts | 85° |
| 2026-05-03 20:21 | 48.99951 | 2.57158 | 363 ft | 9 kts | 85° |
| 2026-05-03 20:21 | 48.99961 | 2.57241 | 365 ft | 8 kts | 63° |
| 2026-05-03 20:22 | 49.00008 | 2.57281 | 367 ft | 8 kts | 14° |
| 2026-05-03 20:22 | 49.00040 | 2.57345 | 361 ft | 8 kts | 78° |
| 2026-05-03 20:22 | 49.00046 | 2.57430 | 366 ft | 8 kts | 85° |
| 2026-05-03 20:22 | 49.00050 | 2.57502 | 364 ft | 6 kts | 85° |
| 2026-05-03 20:23 | 49.00053 | 2.57564 | 360 ft | 6 kts | 85° |
| 2026-05-03 20:23 | 49.00057 | 2.57625 | 362 ft | 6 kts | 85° |
| 2026-05-03 20:23 | 49.00060 | 2.57687 | 365 ft | 6 kts | 85° |
| 2026-05-03 20:23 | 49.00063 | 2.57749 | 364 ft | 6 kts | 85° |
| 2026-05-03 20:24 | 49.00066 | 2.57802 | 363 ft | 5 kts | 84° |
| 2026-05-03 20:24 | 49.00087 | 2.57828 | 367 ft | 3 kts | 12° |
| 2026-05-03 20:24 | 49.00109 | 2.57829 | 366 ft | 3 kts | 359° |
| 2026-05-03 20:24 | 49.00124 | 2.57828 | 364 ft | 2 kts | 358° |
| 2026-05-03 20:25 | 49.00136 | 2.57827 | 364 ft | 2 kts | 356° |
| 2026-05-03 20:25 | 49.00143 | 2.57826 | 364 ft | 0 kts | 356° |